Terminal Aerodrome Forecast
Issued by NWS Wilmington, OH

Current Version | Previous Version | Text Only | Print | Product List | Glossary Off
Versions: 1 2 3 4 5 6 7 8 9 10 11 12 13 14 15 16 17 18 19

000
FTUS41 KILN 131100
TAFILN
TAF
KILN 131120Z 1312/1412 20013KT P6SM BKN150
     FM131400 20016G27KT P6SM SCT040 BKN120
     FM131700 21022G32KT P6SM FEW050 BKN120
     FM140000 19015G24KT P6SM SCT050 BKN100=

USA.gov is the U.S. government's official web portal to all federal, state and local government web resources and services.